sensor_id;sensor_type;location;lat;lon;timestamp;pressure;altitude;pressure_sealevel;temperature;humidity
73101;BME280;61288;53.446;-2.266;2022-10-14T00:00:19;100941.94;;;9.46;89.63
73101;BME280;61288;53.446;-2.266;2022-10-14T00:02:45;100934.28;;;9.43;89.51
73101;BME280;61288;53.446;-2.266;2022-10-14T00:05:11;100933.44;;;9.42;89.60
73101;BME280;61288;53.446;-2.266;2022-10-14T00:07:37;100926.56;;;9.41;89.70
73101;BME280;61288;53.446;-2.266;2022-10-14T00:10:04;100927.44;;;9.42;89.90
73101;BME280;61288;53.446;-2.266;2022-10-14T00:12:31;100925.66;;;9.42;90.09
73101;BME280;61288;53.446;-2.266;2022-10-14T00:14:59;100923.09;;;9.42;90.14
73101;BME280;61288;53.446;-2.266;2022-10-14T00:17:31;100922.19;;;9.43;90.71
73101;BME280;61288;53.446;-2.266;2022-10-14T00:19:58;100919.59;;;9.43;90.88
73101;BME280;61288;53.446;-2.266;2022-10-14T00:22:25;100912.66;;;9.45;91.00
73101;BME280;61288;53.446;-2.266;2022-10-14T00:24:51;100916.06;;;9.47;90.59
73101;BME280;61288;53.446;-2.266;2022-10-14T00:27:17;100916.78;;;9.51;90.45
73101;BME280;61288;53.446;-2.266;2022-10-14T00:29:42;100922.81;;;9.51;90.44
73101;BME280;61288;53.446;-2.266;2022-10-14T00:32:08;100912.50;;;9.50;91.30
73101;BME280;61288;53.446;-2.266;2022-10-14T00:34:35;100918.53;;;9.50;90.94
73101;BME280;61288;53.446;-2.266;2022-10-14T00:37:00;100917.53;;;9.54;91.00
73101;BME280;61288;53.446;-2.266;2022-10-14T00:39:26;100910.56;;;9.57;90.67
73101;BME280;61288;53.446;-2.266;2022-10-14T00:41:52;100913.88;;;9.60;90.53
73101;BME280;61288;53.446;-2.266;2022-10-14T00:46:45;100899.00;;;9.67;90.48
73101;BME280;61288;53.446;-2.266;2022-10-14T00:49:22;100898.91;;;9.70;90.13
73101;BME280;61288;53.446;-2.266;2022-10-14T00:52:04;100891.94;;;9.72;90.21
73101;BME280;61288;53.446;-2.266;2022-10-14T00:54:39;100891.81;;;9.75;90.28
73101;BME280;61288;53.446;-2.266;2022-10-14T00:57:06;100893.47;;;9.78;90.24
73101;BME280;61288;53.446;-2.266;2022-10-14T00:59:33;100883.91;;;9.80;89.96
73101;BME280;61288;53.446;-2.266;2022-10-14T01:01:59;100880.38;;;9.82;89.63
73101;BME280;61288;53.446;-2.266;2022-10-14T01:04:25;100883.81;;;9.83;89.77
73101;BME280;61288;53.446;-2.266;2022-10-14T01:13:16;100879.28;;;9.90;89.13
73101;BME280;61288;53.446;-2.266;2022-10-14T01:21:20;100866.38;;;9.88;89.65
73101;BME280;61288;53.446;-2.266;2022-10-14T01:31:43;100839.78;;;9.85;89.55
73101;BME280;61288;53.446;-2.266;2022-10-14T01:34:13;100841.47;;;9.86;89.30
73101;BME280;61288;53.446;-2.266;2022-10-14T01:36:57;100840.56;;;9.87;89.54
73101;BME280;61288;53.446;-2.266;2022-10-14T01:39:29;100843.19;;;9.85;89.61
73101;BME280;61288;53.446;-2.266;2022-10-14T01:42:09;100835.50;;;9.83;89.87
73101;BME280;61288;53.446;-2.266;2022-10-14T01:44:40;100838.00;;;9.85;89.46
73101;BME280;61288;53.446;-2.266;2022-10-14T01:47:07;100838.88;;;9.86;89.60
73101;BME280;61288;53.446;-2.266;2022-10-14T01:49:44;100838.78;;;9.87;89.72
73101;BME280;61288;53.446;-2.266;2022-10-14T01:52:17;100837.00;;;9.89;89.62
73101;BME280;61288;53.446;-2.266;2022-10-14T01:54:49;100831.94;;;9.86;89.62
73101;BME280;61288;53.446;-2.266;2022-10-14T01:57:20;100831.88;;;9.88;89.98
73101;BME280;61288;53.446;-2.266;2022-10-14T01:59:49;100832.69;;;9.90;89.72
73101;BME280;61288;53.446;-2.266;2022-10-14T02:02:16;100824.81;;;9.93;89.56
73101;BME280;61288;53.446;-2.266;2022-10-14T02:04:42;100818.72;;;9.94;89.34
73101;BME280;61288;53.446;-2.266;2022-10-14T02:07:28;100816.13;;;9.94;89.59
73101;BME280;61288;53.446;-2.266;2022-10-14T02:20:39;100787.44;;;10.00;89.77
73101;BME280;61288;53.446;-2.266;2022-10-14T02:23:11;100784.81;;;10.02;89.44
73101;BME280;61288;53.446;-2.266;2022-10-14T02:25:40;100786.41;;;10.04;89.85
73101;BME280;61288;53.446;-2.266;2022-10-14T02:28:10;100778.59;;;10.06;89.70
73101;BME280;61288;53.446;-2.266;2022-10-14T02:30:42;100778.53;;;10.07;89.72
73101;BME280;61288;53.446;-2.266;2022-10-14T02:33:13;100765.47;;;10.10;89.84
73101;BME280;61288;53.446;-2.266;2022-10-14T02:35:40;100764.47;;;10.15;89.71
73101;BME280;61288;53.446;-2.266;2022-10-14T02:38:06;100762.59;;;10.18;89.67
73101;BME280;61288;53.446;-2.266;2022-10-14T02:40:37;100756.41;;;10.22;89.41
73101;BME280;61288;53.446;-2.266;2022-10-14T02:43:04;100746.00;;;10.24;89.70
73101;BME280;61288;53.446;-2.266;2022-10-14T02:45:33;100747.69;;;10.25;89.69
73101;BME280;61288;53.446;-2.266;2022-10-14T02:47:59;100744.16;;;10.28;89.56
73101;BME280;61288;53.446;-2.266;2022-10-14T02:50:24;100738.88;;;10.29;89.43
73101;BME280;61288;53.446;-2.266;2022-10-14T02:52:50;100736.31;;;10.29;89.33
73101;BME280;61288;53.446;-2.266;2022-10-14T02:55:15;100737.16;;;10.30;89.37
73101;BME280;61288;53.446;-2.266;2022-10-14T02:57:41;100734.56;;;10.30;89.46
73101;BME280;61288;53.446;-2.266;2022-10-14T03:00:07;100735.53;;;10.27;89.67
73101;BME280;61288;53.446;-2.266;2022-10-14T03:02:32;100735.53;;;10.27;90.00
73101;BME280;61288;53.446;-2.266;2022-10-14T03:04:58;100723.47;;;10.26;90.34
73101;BME280;61288;53.446;-2.266;2022-10-14T03:07:24;100717.25;;;10.30;90.18
73101;BME280;61288;53.446;-2.266;2022-10-14T03:09:49;100720.63;;;10.32;90.27
73101;BME280;61288;53.446;-2.266;2022-10-14T03:12:15;100718.72;;;10.37;89.87
73101;BME280;61288;53.446;-2.266;2022-10-14T03:14:41;100710.94;;;10.37;89.83
73101;BME280;61288;53.446;-2.266;2022-10-14T03:17:07;100714.31;;;10.39;89.81
73101;BME280;61288;53.446;-2.266;2022-10-14T03:19:32;100711.69;;;10.41;89.99
73101;BME280;61288;53.446;-2.266;2022-10-14T03:22:00;100706.44;;;10.43;89.51
73101;BME280;61288;53.446;-2.266;2022-10-14T03:24:26;100700.31;;;10.45;89.77
73101;BME280;61288;53.446;-2.266;2022-10-14T03:26:51;100709.75;;;10.46;90.00
73101;BME280;61288;53.446;-2.266;2022-10-14T03:29:17;100690.72;;;10.47;89.59
73101;BME280;61288;53.446;-2.266;2022-10-14T03:31:43;100677.72;;;10.49;89.65
73101;BME280;61288;53.446;-2.266;2022-10-14T03:34:08;100684.59;;;10.50;89.51
73101;BME280;61288;53.446;-2.266;2022-10-14T03:36:34;100680.25;;;10.50;89.50
73101;BME280;61288;53.446;-2.266;2022-10-14T03:38:59;100682.00;;;10.50;89.74
73101;BME280;61288;53.446;-2.266;2022-10-14T03:41:25;100677.72;;;10.49;89.81
73101;BME280;61288;53.446;-2.266;2022-10-14T03:43:50;100666.50;;;10.48;89.86
73101;BME280;61288;53.446;-2.266;2022-10-14T03:46:16;100668.19;;;10.49;89.64
73101;BME280;61288;53.446;-2.266;2022-10-14T03:48:43;100673.38;;;10.49;89.73
73101;BME280;61288;53.446;-2.266;2022-10-14T03:51:09;100663.91;;;10.48;89.41
73101;BME280;61288;53.446;-2.266;2022-10-14T03:53:35;100663.09;;;10.48;89.67
73101;BME280;61288;53.446;-2.266;2022-10-14T03:56:00;100652.72;;;10.48;89.76
73101;BME280;61288;53.446;-2.266;2022-10-14T03:58:26;100658.72;;;10.48;89.82
73101;BME280;61288;53.446;-2.266;2022-10-14T04:00:52;100651.75;;;10.50;89.70
73101;BME280;61288;53.446;-2.266;2022-10-14T04:03:17;100654.34;;;10.50;89.65
73101;BME280;61288;53.446;-2.266;2022-10-14T04:05:43;100652.50;;;10.52;89.86
73101;BME280;61288;53.446;-2.266;2022-10-14T04:08:10;100655.09;;;10.52;90.09
73101;BME280;61288;53.446;-2.266;2022-10-14T04:10:35;100658.56;;;10.53;90.25
73101;BME280;61288;53.446;-2.266;2022-10-14T04:13:01;100655.88;;;10.54;90.38
73101;BME280;61288;53.446;-2.266;2022-10-14T04:15:26;100648.97;;;10.55;90.43
73101;BME280;61288;53.446;-2.266;2022-10-14T04:17:52;100642.03;;;10.55;90.36
73101;BME280;61288;53.446;-2.266;2022-10-14T04:20:17;100643.72;;;10.57;90.46
73101;BME280;61288;53.446;-2.266;2022-10-14T04:22:43;100642.88;;;10.56;90.54
73101;BME280;61288;53.446;-2.266;2022-10-14T04:25:09;100647.22;;;10.55;90.85
73101;BME280;61288;53.446;-2.266;2022-10-14T04:27:34;100640.28;;;10.56;90.61
73101;BME280;61288;53.446;-2.266;2022-10-14T04:30:00;100645.41;;;10.58;90.22
73101;BME280;61288;53.446;-2.266;2022-10-14T04:32:26;100644.47;;;10.59;90.58
73101;BME280;61288;53.446;-2.266;2022-10-14T04:34:51;100642.75;;;10.59;90.57
73101;BME280;61288;53.446;-2.266;2022-10-14T04:37:19;100635.81;;;10.60;90.36
73101;BME280;61288;53.446;-2.266;2022-10-14T04:39:44;100633.28;;;10.58;90.66
73101;BME280;61288;53.446;-2.266;2022-10-14T04:42:10;100639.44;;;10.55;90.47
73101;BME280;61288;53.446;-2.266;2022-10-14T04:44:36;100632.69;;;10.51;90.63
73101;BME280;61288;53.446;-2.266;2022-10-14T04:47:02;100627.66;;;10.48;90.72
73101;BME280;61288;53.446;-2.266;2022-10-14T04:49:27;100633.69;;;10.49;90.48
73101;BME280;61288;53.446;-2.266;2022-10-14T04:51:53;100624.34;;;10.45;90.74
73101;BME280;61288;53.446;-2.266;2022-10-14T04:54:18;100621.94;;;10.40;90.87
73101;BME280;61288;53.446;-2.266;2022-10-14T04:56:44;100624.63;;;10.37;90.86
73101;BME280;61288;53.446;-2.266;2022-10-14T04:59:10;100619.50;;;10.35;91.15
73101;BME280;61288;53.446;-2.266;2022-10-14T05:01:36;100612.75;;;10.31;90.97
73101;BME280;61288;53.446;-2.266;2022-10-14T05:04:03;100611.16;;;10.29;91.13
73101;BME280;61288;53.446;-2.266;2022-10-14T05:06:28;100605.25;;;10.25;91.43
73101;BME280;61288;53.446;-2.266;2022-10-14T05:08:54;100603.63;;;10.22;91.65
73101;BME280;61288;53.446;-2.266;2022-10-14T05:11:19;100598.56;;;10.19;91.60
73101;BME280;61288;53.446;-2.266;2022-10-14T05:13:45;100602.16;;;10.17;92.15
73101;BME280;61288;53.446;-2.266;2022-10-14T05:16:11;100597.00;;;10.15;92.16
73101;BME280;61288;53.446;-2.266;2022-10-14T05:18:37;100594.53;;;10.12;92.03
73101;BME280;61288;53.446;-2.266;2022-10-14T05:21:02;100594.69;;;10.09;91.56
73101;BME280;61288;53.446;-2.266;2022-10-14T05:23:28;100590.41;;;10.08;92.24
73101;BME280;61288;53.446;-2.266;2022-10-14T05:25:53;100594.69;;;10.09;92.47
73101;BME280;61288;53.446;-2.266;2022-10-14T05:28:19;100592.91;;;10.09;92.43
73101;BME280;61288;53.446;-2.266;2022-10-14T05:30:45;100590.31;;;10.09;92.45
73101;BME280;61288;53.446;-2.266;2022-10-14T05:33:10;100590.22;;;10.13;92.63
73101;BME280;61288;53.446;-2.266;2022-10-14T05:35:36;100591.84;;;10.15;92.37
73101;BME280;61288;53.446;-2.266;2022-10-14T05:38:03;100583.16;;;10.16;92.64
73101;BME280;61288;53.446;-2.266;2022-10-14T05:40:28;100581.34;;;10.18;92.46
73101;BME280;61288;53.446;-2.266;2022-10-14T05:42:54;100585.56;;;10.21;92.65
73101;BME280;61288;53.446;-2.266;2022-10-14T05:45:19;100593.34;;;10.21;92.54
73101;BME280;61288;53.446;-2.266;2022-10-14T05:47:45;100589.84;;;10.22;92.64
73101;BME280;61288;53.446;-2.266;2022-10-14T05:50:11;100593.22;;;10.24;92.48
73101;BME280;61288;53.446;-2.266;2022-10-14T05:52:38;100584.53;;;10.25;92.61
73101;BME280;61288;53.446;-2.266;2022-10-14T05:55:06;100581.81;;;10.28;92.49
73101;BME280;61288;53.446;-2.266;2022-10-14T05:57:32;100577.53;;;10.27;92.19
73101;BME280;61288;53.446;-2.266;2022-10-14T06:00:02;100578.50;;;10.24;92.39
73101;BME280;61288;53.446;-2.266;2022-10-14T06:02:29;100570.88;;;10.21;92.39
73101;BME280;61288;53.446;-2.266;2022-10-14T06:04:56;100575.34;;;10.18;92.04
73101;BME280;61288;53.446;-2.266;2022-10-14T06:07:22;100574.63;;;10.14;92.51
73101;BME280;61288;53.446;-2.266;2022-10-14T06:09:48;100571.19;;;10.14;92.69
73101;BME280;61288;53.446;-2.266;2022-10-14T06:12:13;100575.53;;;10.13;92.86
73101;BME280;61288;53.446;-2.266;2022-10-14T06:14:39;100577.19;;;10.14;92.84
73101;BME280;61288;53.446;-2.266;2022-10-14T06:17:05;100573.78;;;10.14;92.80
73101;BME280;61288;53.446;-2.266;2022-10-14T06:19:31;100571.19;;;10.14;92.88
73101;BME280;61288;53.446;-2.266;2022-10-14T06:21:57;100584.97;;;10.14;92.81
73101;BME280;61288;53.446;-2.266;2022-10-14T06:24:22;100572.09;;;10.13;93.10
73101;BME280;61288;53.446;-2.266;2022-10-14T06:26:48;100577.28;;;10.13;92.89
73101;BME280;61288;53.446;-2.266;2022-10-14T06:29:15;100575.38;;;10.16;92.63
73101;BME280;61288;53.446;-2.266;2022-10-14T06:31:41;100570.22;;;10.16;92.65
73101;BME280;61288;53.446;-2.266;2022-10-14T06:34:07;100582.34;;;10.16;93.10
73101;BME280;61288;53.446;-2.266;2022-10-14T06:36:32;100585.81;;;10.15;93.18
73101;BME280;61288;53.446;-2.266;2022-10-14T06:38:59;100585.88;;;10.13;92.94
73101;BME280;61288;53.446;-2.266;2022-10-14T06:41:25;100574.78;;;10.09;92.75
73101;BME280;61288;53.446;-2.266;2022-10-14T06:43:52;100578.38;;;10.07;92.82
73101;BME280;61288;53.446;-2.266;2022-10-14T06:46:18;100586.31;;;10.02;93.38
73101;BME280;61288;53.446;-2.266;2022-10-14T06:48:45;100581.25;;;9.99;93.19
73101;BME280;61288;53.446;-2.266;2022-10-14T06:51:10;100584.81;;;9.96;93.26
73101;BME280;61288;53.446;-2.266;2022-10-14T06:53:35;100581.50;;;9.93;93.24
73101;BME280;61288;53.446;-2.266;2022-10-14T06:56:04;100582.56;;;9.87;93.71
73101;BME280;61288;53.446;-2.266;2022-10-14T06:58:30;100590.34;;;9.87;93.82
73101;BME280;61288;53.446;-2.266;2022-10-14T07:01:00;100585.25;;;9.86;93.63
73101;BME280;61288;53.446;-2.266;2022-10-14T07:03:27;100593.84;;;9.86;93.60
73101;BME280;61288;53.446;-2.266;2022-10-14T07:05:52;100592.22;;;9.83;93.64
73101;BME280;61288;53.446;-2.266;2022-10-14T07:08:19;100592.22;;;9.83;93.70
73101;BME280;61288;53.446;-2.266;2022-10-14T07:10:48;100600.00;;;9.83;93.58
73101;BME280;61288;53.446;-2.266;2022-10-14T07:13:13;100603.28;;;9.87;93.30
73101;BME280;61288;53.446;-2.266;2022-10-14T07:15:39;100600.69;;;9.87;93.22
73101;BME280;61288;53.446;-2.266;2022-10-14T07:18:05;100592.16;;;9.85;93.45
73101;BME280;61288;53.446;-2.266;2022-10-14T07:20:32;100593.91;;;9.85;93.97
73101;BME280;61288;53.446;-2.266;2022-10-14T07:22:58;100597.53;;;9.80;94.16
73101;BME280;61288;53.446;-2.266;2022-10-14T07:25:24;100607.09;;;9.78;93.94
73101;BME280;61288;53.446;-2.266;2022-10-14T07:27:51;100600.28;;;9.76;94.03
73101;BME280;61288;53.446;-2.266;2022-10-14T07:30:17;100600.31;;;9.74;93.93
73101;BME280;61288;53.446;-2.266;2022-10-14T07:32:43;100602.88;;;9.76;93.59
73101;BME280;61288;53.446;-2.266;2022-10-14T07:35:09;100602.88;;;9.76;93.51
73101;BME280;61288;53.446;-2.266;2022-10-14T07:37:34;100612.47;;;9.72;93.93
73101;BME280;61288;53.446;-2.266;2022-10-14T07:40:00;100609.00;;;9.73;93.73
73101;BME280;61288;53.446;-2.266;2022-10-14T07:42:25;100610.75;;;9.73;93.66
73101;BME280;61288;53.446;-2.266;2022-10-14T07:44:50;100604.78;;;9.71;94.28
73101;BME280;61288;53.446;-2.266;2022-10-14T07:47:18;100609.00;;;9.73;93.99
73101;BME280;61288;53.446;-2.266;2022-10-14T07:49:44;100603.69;;;9.76;94.33
73101;BME280;61288;53.446;-2.266;2022-10-14T07:52:09;100610.47;;;9.80;94.03
73101;BME280;61288;53.446;-2.266;2022-10-14T07:54:36;100612.94;;;9.83;94.05
73101;BME280;61288;53.446;-2.266;2022-10-14T07:57:02;100612.81;;;9.87;93.98
73101;BME280;61288;53.446;-2.266;2022-10-14T07:59:28;100606.53;;;9.92;94.15
73101;BME280;61288;53.446;-2.266;2022-10-14T08:01:54;100609.94;;;9.94;93.84
73101;BME280;61288;53.446;-2.266;2022-10-14T08:04:21;100621.75;;;10.00;93.97
73101;BME280;61288;53.446;-2.266;2022-10-14T08:06:48;100617.13;;;10.08;93.66
73101;BME280;61288;53.446;-2.266;2022-10-14T08:09:16;100623.63;;;10.19;93.50
73101;BME280;61288;53.446;-2.266;2022-10-14T08:11:42;100623.25;;;10.28;92.86
73101;BME280;61288;53.446;-2.266;2022-10-14T08:14:08;100616.75;;;10.40;93.12
73101;BME280;61288;53.446;-2.266;2022-10-14T08:16:34;100619.75;;;10.51;92.77
73101;BME280;61288;53.446;-2.266;2022-10-14T08:19:04;100618.53;;;10.60;92.05
73101;BME280;61288;53.446;-2.266;2022-10-14T08:21:30;100630.13;;;10.72;91.68
73101;BME280;61288;53.446;-2.266;2022-10-14T08:23:56;100628.03;;;10.80;91.00
73101;BME280;61288;53.446;-2.266;2022-10-14T08:26:28;100625.97;;;10.89;90.58
73101;BME280;61288;53.446;-2.266;2022-10-14T08:28:59;100624.09;;;10.92;90.15
73101;BME280;61288;53.446;-2.266;2022-10-14T08:31:25;100620.41;;;10.98;89.75
73101;BME280;61288;53.446;-2.266;2022-10-14T08:33:51;100623.94;;;11.16;89.58
73101;BME280;61288;53.446;-2.266;2022-10-14T08:36:18;100621.69;;;11.27;88.48
73101;BME280;61288;53.446;-2.266;2022-10-14T08:38:44;100624.16;;;11.31;88.18
73101;BME280;61288;53.446;-2.266;2022-10-14T08:44:14;100619.88;;;11.49;86.64
73101;BME280;61288;53.446;-2.266;2022-10-14T08:46:46;100617.66;;;11.60;86.35
73101;BME280;61288;53.446;-2.266;2022-10-14T08:49:26;100625.00;;;11.69;85.48
73101;BME280;61288;53.446;-2.266;2022-10-14T08:52:03;100631.00;;;11.89;85.90
73101;BME280;61288;53.446;-2.266;2022-10-14T08:54:56;100631.84;;;11.90;85.14
73101;BME280;61288;53.446;-2.266;2022-10-14T08:57:40;100625.28;;;11.82;83.18
73101;BME280;61288;53.446;-2.266;2022-10-14T09:00:09;100619.06;;;11.85;84.35
73101;BME280;61288;53.446;-2.266;2022-10-14T09:02:45;100626.72;;;11.88;84.32
73101;BME280;61288;53.446;-2.266;2022-10-14T09:05:17;100625.53;;;11.95;84.29
73101;BME280;61288;53.446;-2.266;2022-10-14T09:07:46;100618.78;;;12.10;83.06
73101;BME280;61288;53.446;-2.266;2022-10-14T09:10:30;100622.31;;;12.27;82.94
73101;BME280;61288;53.446;-2.266;2022-10-14T09:13:01;100617.66;;;12.34;81.06
73101;BME280;61288;53.446;-2.266;2022-10-14T09:15:38;100618.34;;;12.37;81.16
73101;BME280;61288;53.446;-2.266;2022-10-14T09:18:21;100618.66;;;12.49;80.31
73101;BME280;61288;53.446;-2.266;2022-10-14T09:20:48;100606.94;;;12.57;80.80
73101;BME280;61288;53.446;-2.266;2022-10-14T09:23:19;100601.91;;;12.72;80.41
73101;BME280;61288;53.446;-2.266;2022-10-14T09:26:07;100601.19;;;12.86;79.48
73101;BME280;61288;53.446;-2.266;2022-10-14T09:28:37;100591.50;;;13.06;78.61
73101;BME280;61288;53.446;-2.266;2022-10-14T09:31:05;100588.59;;;13.12;78.19
73101;BME280;61288;53.446;-2.266;2022-10-14T09:33:32;100584.91;;;13.16;76.68
73101;BME280;61288;53.446;-2.266;2022-10-14T09:36:12;100575.34;;;13.33;76.90
73101;BME280;61288;53.446;-2.266;2022-10-14T09:38:40;100579.72;;;13.32;75.92
73101;BME280;61288;53.446;-2.266;2022-10-14T09:41:09;100569.63;;;13.42;75.81
73101;BME280;61288;53.446;-2.266;2022-10-14T09:43:36;100579.16;;;13.59;75.70
73101;BME280;61288;53.446;-2.266;2022-10-14T09:46:05;100580.50;;;13.66;75.45
73101;BME280;61288;53.446;-2.266;2022-10-14T09:50:59;100580.03;;;13.90;74.43
73101;BME280;61288;53.446;-2.266;2022-10-14T09:53:33;100576.66;;;13.88;73.08
73101;BME280;61288;53.446;-2.266;2022-10-14T09:56:02;100570.97;;;13.97;72.54
73101;BME280;61288;53.446;-2.266;2022-10-14T09:58:52;100575.53;;;14.08;70.99
73101;BME280;61288;53.446;-2.266;2022-10-14T10:01:39;100581.53;;;14.10;71.02
73101;BME280;61288;53.446;-2.266;2022-10-14T10:06:56;100568.91;;;14.33;71.27
73101;BME280;61288;53.446;-2.266;2022-10-14T10:09:23;100561.94;;;14.48;70.27
73101;BME280;61288;53.446;-2.266;2022-10-14T10:11:49;100561.66;;;14.38;67.98
73101;BME280;61288;53.446;-2.266;2022-10-14T10:14:24;100563.94;;;14.59;69.58
73101;BME280;61288;53.446;-2.266;2022-10-14T10:17:10;100567.41;;;14.74;68.88
73101;BME280;61288;53.446;-2.266;2022-10-14T10:19:47;100561.19;;;14.91;68.38
73101;BME280;61288;53.446;-2.266;2022-10-14T10:25:29;100563.50;;;15.10;66.86
73101;BME280;61288;53.446;-2.266;2022-10-14T10:27:37;100557.59;;;15.21;66.79
73101;BME280;61288;53.446;-2.266;2022-10-14T10:40:44;100558.44;;;14.64;68.17
73101;BME280;61288;53.446;-2.266;2022-10-14T10:46:24;100561.75;;;14.06;69.56
73101;BME280;61288;53.446;-2.266;2022-10-14T10:49:02;100566.00;;;13.93;70.95
73101;BME280;61288;53.446;-2.266;2022-10-14T10:51:43;100553.25;;;13.72;71.61
73101;BME280;61288;53.446;-2.266;2022-10-14T10:57:32;100552.78;;;13.49;72.55
73101;BME280;61288;53.446;-2.266;2022-10-14T11:00:09;100549.81;;;13.39;73.47
73101;BME280;61288;53.446;-2.266;2022-10-14T11:02:52;100551.84;;;13.34;73.52
73101;BME280;61288;53.446;-2.266;2022-10-14T11:05:33;100549.41;;;13.31;74.14
73101;BME280;61288;53.446;-2.266;2022-10-14T11:14:42;100531.28;;;13.29;74.02
73101;BME280;61288;53.446;-2.266;2022-10-14T11:17:33;100534.72;;;13.30;74.36
73101;BME280;61288;53.446;-2.266;2022-10-14T11:25:49;100526.22;;;13.26;74.32
73101;BME280;61288;53.446;-2.266;2022-10-14T11:28:40;100519.69;;;13.19;74.14
73101;BME280;61288;53.446;-2.266;2022-10-14T11:44:39;100505.16;;;12.99;74.84
73101;BME280;61288;53.446;-2.266;2022-10-14T11:47:16;100506.75;;;13.02;75.15
73101;BME280;61288;53.446;-2.266;2022-10-14T11:50:15;100503.97;;;13.05;75.19
73101;BME280;61288;53.446;-2.266;2022-10-14T11:53:04;100504.72;;;13.07;76.10
73101;BME280;61288;53.446;-2.266;2022-10-14T11:55:39;100497.69;;;13.09;75.45
73101;BME280;61288;53.446;-2.266;2022-10-14T11:58:13;100496.78;;;13.10;75.30
73101;BME280;61288;53.446;-2.266;2022-10-14T12:03:52;100492.16;;;13.15;75.95
73101;BME280;61288;53.446;-2.266;2022-10-14T12:09:27;100481.50;;;13.20;74.70
73101;BME280;61288;53.446;-2.266;2022-10-14T12:12:01;100485.59;;;13.24;75.49
73101;BME280;61288;53.446;-2.266;2022-10-14T12:14:38;100478.72;;;13.23;73.91
73101;BME280;61288;53.446;-2.266;2022-10-14T12:17:06;100479.63;;;13.22;74.47
73101;BME280;61288;53.446;-2.266;2022-10-14T12:19:37;100476.28;;;13.20;75.00
73101;BME280;61288;53.446;-2.266;2022-10-14T12:22:06;100486.03;;;13.16;74.35
73101;BME280;61288;53.446;-2.266;2022-10-14T12:24:36;100480.91;;;13.14;74.67
73101;BME280;61288;53.446;-2.266;2022-10-14T12:27:05;100473.09;;;13.14;74.79
73101;BME280;61288;53.446;-2.266;2022-10-14T12:29:40;100470.59;;;13.13;74.78
73101;BME280;61288;53.446;-2.266;2022-10-14T12:32:16;100469.84;;;13.11;74.80
73101;BME280;61288;53.446;-2.266;2022-10-14T12:34:47;100475.19;;;13.08;75.30
73101;BME280;61288;53.446;-2.266;2022-10-14T12:39:52;100460.44;;;13.08;75.36
73101;BME280;61288;53.446;-2.266;2022-10-14T12:42:19;100475.19;;;13.08;75.46
73101;BME280;61288;53.446;-2.266;2022-10-14T12:44:48;100469.34;;;13.04;76.53
73101;BME280;61288;53.446;-2.266;2022-10-14T12:47:26;100475.53;;;13.02;77.43
73101;BME280;61288;53.446;-2.266;2022-10-14T12:50:00;100467.09;;;12.98;77.90
73101;BME280;61288;53.446;-2.266;2022-10-14T12:52:32;100472.75;;;12.89;79.77
73101;BME280;61288;53.446;-2.266;2022-10-14T12:55:00;100485.25;;;12.66;83.41
73101;BME280;61288;53.446;-2.266;2022-10-14T12:57:29;100485.88;;;12.53;84.73
73101;BME280;61288;53.446;-2.266;2022-10-14T12:59:59;100485.53;;;12.44;87.10
73101;BME280;61288;53.446;-2.266;2022-10-14T13:02:43;100481.13;;;12.28;88.51
73101;BME280;61288;53.446;-2.266;2022-10-14T13:05:34;100493.88;;;12.15;89.69
73101;BME280;61288;53.446;-2.266;2022-10-14T13:10:48;100472.72;;;11.88;91.83
73101;BME280;61288;53.446;-2.266;2022-10-14T13:21:50;100465.75;;;11.70;94.00
73101;BME280;61288;53.446;-2.266;2022-10-14T13:37:38;100449.72;;;11.80;94.26
73101;BME280;61288;53.446;-2.266;2022-10-14T13:40:21;100448.81;;;11.81;94.69
73101;BME280;61288;53.446;-2.266;2022-10-14T13:42:54;100448.59;;;11.85;94.29
73101;BME280;61288;53.446;-2.266;2022-10-14T13:45:27;100446.44;;;11.94;94.35
73101;BME280;61288;53.446;-2.266;2022-10-14T13:47:54;100440.03;;;12.01;94.10
73101;BME280;61288;53.446;-2.266;2022-10-14T13:50:26;100443.06;;;12.09;93.93
73101;BME280;61288;53.446;-2.266;2022-10-14T13:53:03;100444.47;;;12.17;93.82
73101;BME280;61288;53.446;-2.266;2022-10-14T13:55:29;100443.38;;;12.21;93.37
73101;BME280;61288;53.446;-2.266;2022-10-14T13:58:07;100442.38;;;12.23;94.05
73101;BME280;61288;53.446;-2.266;2022-10-14T14:00:38;100436.56;;;12.18;92.07
73101;BME280;61288;53.446;-2.266;2022-10-14T14:03:30;100440.34;;;12.12;91.75
73101;BME280;61288;53.446;-2.266;2022-10-14T14:05:57;100432.94;;;12.05;90.17
73101;BME280;61288;53.446;-2.266;2022-10-14T14:08:30;100429.72;;;11.99;91.14
73101;BME280;61288;53.446;-2.266;2022-10-14T14:10:59;100425.66;;;11.94;91.68
73101;BME280;61288;53.446;-2.266;2022-10-14T14:13:26;100425.66;;;11.94;92.39
73101;BME280;61288;53.446;-2.266;2022-10-14T14:15:53;100424.69;;;11.96;91.98
73101;BME280;61288;53.446;-2.266;2022-10-14T14:18:37;100426.25;;;11.99;89.37
73101;BME280;61288;53.446;-2.266;2022-10-14T14:21:05;100420.16;;;12.00;89.22
73101;BME280;61288;53.446;-2.266;2022-10-14T14:23:31;100418.78;;;11.93;89.72
73101;BME280;61288;53.446;-2.266;2022-10-14T14:25:57;100419.00;;;11.88;88.14
73101;BME280;61288;53.446;-2.266;2022-10-14T14:28:25;100409.72;;;11.84;87.74
73101;BME280;61288;53.446;-2.266;2022-10-14T14:30:54;100415.22;;;11.78;88.24
73101;BME280;61288;53.446;-2.266;2022-10-14T14:33:28;100414.44;;;11.76;89.26
73101;BME280;61288;53.446;-2.266;2022-10-14T14:35:57;100418.94;;;11.72;89.74
73101;BME280;61288;53.446;-2.266;2022-10-14T14:38:26;100413.09;;;11.68;89.80
73101;BME280;61288;53.446;-2.266;2022-10-14T14:43:32;100416.97;;;11.60;89.04
73101;BME280;61288;53.446;-2.266;2022-10-14T14:46:03;100415.59;;;11.52;88.14
73101;BME280;61288;53.446;-2.266;2022-10-14T14:48:29;100418.34;;;11.49;87.99
73101;BME280;61288;53.446;-2.266;2022-10-14T14:50:56;100421.38;;;11.40;89.27
73101;BME280;61288;53.446;-2.266;2022-10-14T14:53:23;100419.78;;;11.37;88.47
73101;BME280;61288;53.446;-2.266;2022-10-14T14:55:57;100429.53;;;11.32;88.37